BMA302 KBOS-TXKF
Flight info
| Callsign | BMA302 |
|---|---|
| Flight time | N/A |
| Altitude | 33000 |
| Route | BRUWN7 BRUWN DCT BORQE Y578 KAYYT/M070F330 L462 ANVER MOMOM1 |
| Aircraft | E75L/M-SDE3GILORVW/S |
Departure
| Time | N/A |
|---|---|
| Airport | Boston Logan International Airport (KBOS) |
Arrival
| Time | 2026-04-24 20:20 |
|---|---|
| Airport | L.F. Wade International Airport (TXKF) |
| Time | Latitude | Longitude | Altitude | Speed | Heading |
|---|---|---|---|---|---|
| 2026-04-24 18:54 | 41.60504 | -70.23086 | 32125 ft | 466 kts | 153° |
| 2026-04-24 18:55 | 41.55238 | -70.17986 | 33011 ft | 471 kts | 143° |
| 2026-04-24 18:55 | 41.52639 | -70.15221 | 32988 ft | 483 kts | 143° |
| 2026-04-24 18:55 | 41.49972 | -70.12415 | 33007 ft | 494 kts | 144° |
| 2026-04-24 18:56 | 41.47244 | -70.09573 | 33027 ft | 504 kts | 144° |
| 2026-04-24 18:56 | 41.44437 | -70.06666 | 32918 ft | 516 kts | 144° |
| 2026-04-24 18:56 | 41.41623 | -70.03759 | 32900 ft | 509 kts | 144° |
| 2026-04-24 18:57 | 41.35948 | -69.97917 | 32921 ft | 520 kts | 144° |
| 2026-04-24 18:57 | 41.30212 | -69.92023 | 32920 ft | 521 kts | 144° |
| 2026-04-24 18:58 | 41.24463 | -69.86130 | 32950 ft | 522 kts | 144° |
| 2026-04-24 18:58 | 41.18726 | -69.80264 | 32885 ft | 523 kts | 144° |
| 2026-04-24 18:59 | 41.12953 | -69.74373 | 32932 ft | 524 kts | 144° |
| 2026-04-24 18:59 | 41.07173 | -69.68489 | 32921 ft | 524 kts | 144° |
| 2026-04-24 19:00 | 41.01388 | -69.62614 | 32926 ft | 524 kts | 144° |
| 2026-04-24 19:00 | 40.96039 | -69.56090 | 32953 ft | 527 kts | 133° |
| 2026-04-24 19:01 | 40.91117 | -69.48830 | 32916 ft | 529 kts | 133° |
| 2026-04-24 19:01 | 40.86181 | -69.41659 | 32925 ft | 529 kts | 133° |
| 2026-04-24 19:02 | 40.81195 | -69.34489 | 32913 ft | 529 kts | 134° |
| 2026-04-24 19:02 | 40.76196 | -69.27325 | 32919 ft | 529 kts | 134° |
| 2026-04-24 19:03 | 40.71232 | -69.20228 | 32919 ft | 529 kts | 134° |
| 2026-04-24 19:03 | 40.66237 | -69.13102 | 32929 ft | 527 kts | 134° |
| 2026-04-24 19:04 | 40.61245 | -69.06001 | 32909 ft | 527 kts | 134° |
| 2026-04-24 19:04 | 40.56253 | -68.98915 | 32911 ft | 527 kts | 134° |
| 2026-04-24 19:05 | 40.51261 | -68.91845 | 32915 ft | 527 kts | 134° |
| 2026-04-24 19:05 | 40.46265 | -68.84787 | 32927 ft | 529 kts | 134° |
| 2026-04-24 19:06 | 40.41263 | -68.77737 | 32916 ft | 530 kts | 134° |
| 2026-04-24 19:06 | 40.36256 | -68.70694 | 32914 ft | 527 kts | 135° |
| 2026-04-24 19:07 | 40.31243 | -68.63661 | 32906 ft | 527 kts | 135° |
| 2026-04-24 19:07 | 40.27077 | -68.57829 | 32906 ft | 527 kts | 135° |
| 2026-04-24 19:08 | 40.21182 | -68.49601 | 32887 ft | 539 kts | 135° |
| 2026-04-24 19:08 | 40.16039 | -68.42435 | 32899 ft | 540 kts | 135° |
| 2026-04-24 19:09 | 40.10893 | -68.35279 | 32897 ft | 538 kts | 135° |
| 2026-04-24 19:09 | 40.05786 | -68.28197 | 32898 ft | 538 kts | 135° |
| 2026-04-24 19:10 | 40.00641 | -68.21083 | 32898 ft | 538 kts | 135° |
| 2026-04-24 19:10 | 39.95479 | -68.13965 | 32895 ft | 539 kts | 137° |
| 2026-04-24 19:10 | 39.92594 | -68.10906 | 32892 ft | 531 kts | 154° |
| 2026-04-24 19:11 | 39.89295 | -68.08850 | 32937 ft | 523 kts | 164° |
| 2026-04-24 19:11 | 39.82498 | -68.05572 | 32865 ft | 518 kts | 165° |
| 2026-04-24 19:12 | 39.75802 | -68.02191 | 32899 ft | 520 kts | 164° |
| 2026-04-24 19:12 | 39.69061 | -67.98706 | 32895 ft | 520 kts | 164° |
| 2026-04-24 19:13 | 39.63464 | -67.95807 | 32891 ft | 520 kts | 164° |
| 2026-04-24 19:13 | 39.55658 | -67.91772 | 32890 ft | 518 kts | 164° |
| 2026-04-24 19:14 | 39.48946 | -67.88312 | 32896 ft | 518 kts | 164° |
| 2026-04-24 19:14 | 39.42239 | -67.84862 | 32892 ft | 518 kts | 164° |
| 2026-04-24 19:15 | 39.35537 | -67.81420 | 32900 ft | 518 kts | 164° |
| 2026-04-24 19:15 | 39.28876 | -67.78008 | 32883 ft | 518 kts | 164° |
| 2026-04-24 19:16 | 39.18795 | -67.72857 | 32880 ft | 518 kts | 164° |
| 2026-04-24 19:16 | 39.12135 | -67.69462 | 32893 ft | 519 kts | 164° |
| 2026-04-24 19:17 | 39.05413 | -67.66043 | 32869 ft | 519 kts | 164° |
| 2026-04-24 19:17 | 38.98698 | -67.62635 | 32869 ft | 518 kts | 164° |
| 2026-04-24 19:18 | 38.91989 | -67.59236 | 32867 ft | 518 kts | 164° |
| 2026-04-24 19:18 | 38.85262 | -67.55803 | 32870 ft | 521 kts | 164° |
| 2026-04-24 19:19 | 38.78614 | -67.52151 | 32858 ft | 519 kts | 163° |
| 2026-04-24 19:19 | 38.71948 | -67.48514 | 32855 ft | 520 kts | 163° |
| 2026-04-24 19:20 | 38.65290 | -67.44904 | 32861 ft | 519 kts | 165° |
| 2026-04-24 19:20 | 38.58609 | -67.41294 | 32856 ft | 520 kts | 165° |
| 2026-04-24 19:21 | 38.51927 | -67.37691 | 32852 ft | 520 kts | 165° |
| 2026-04-24 19:21 | 38.45296 | -67.34123 | 32848 ft | 520 kts | 165° |
| 2026-04-24 19:22 | 38.38621 | -67.30538 | 32846 ft | 520 kts | 165° |
| 2026-04-24 19:22 | 38.31931 | -67.26952 | 32845 ft | 520 kts | 165° |
| 2026-04-24 19:23 | 38.25249 | -67.23378 | 32845 ft | 520 kts | 165° |
| 2026-04-24 19:23 | 38.18585 | -67.19819 | 32796 ft | 518 kts | 165° |
| 2026-04-24 19:24 | 38.11974 | -67.16298 | 32840 ft | 518 kts | 166° |
| 2026-04-24 19:24 | 38.05318 | -67.12760 | 32829 ft | 518 kts | 166° |
| 2026-04-24 19:25 | 37.98659 | -67.09226 | 32824 ft | 518 kts | 166° |
| 2026-04-24 19:25 | 37.92006 | -67.05699 | 32862 ft | 513 kts | 166° |
| 2026-04-24 19:26 | 37.85419 | -67.02220 | 32827 ft | 514 kts | 166° |
| 2026-04-24 19:26 | 37.78790 | -66.98724 | 32820 ft | 514 kts | 166° |
| 2026-04-24 19:27 | 37.72208 | -66.95259 | 32820 ft | 514 kts | 166° |
| 2026-04-24 19:27 | 37.65598 | -66.91785 | 32813 ft | 512 kts | 166° |
| 2026-04-24 19:28 | 37.59054 | -66.88353 | 32809 ft | 511 kts | 166° |
| 2026-04-24 19:28 | 37.52491 | -66.84917 | 32818 ft | 510 kts | 166° |
| 2026-04-24 19:29 | 37.42654 | -66.79776 | 32847 ft | 508 kts | 166° |
| 2026-04-24 19:30 | 37.36141 | -66.76349 | 32809 ft | 509 kts | 166° |
| 2026-04-24 19:30 | 37.29594 | -66.72911 | 32808 ft | 509 kts | 166° |
| 2026-04-24 19:31 | 37.23045 | -66.69482 | 32807 ft | 510 kts | 166° |
| 2026-04-24 19:31 | 37.16502 | -66.66062 | 32814 ft | 509 kts | 165° |
| 2026-04-24 19:32 | 37.09995 | -66.62667 | 32809 ft | 509 kts | 165° |
| 2026-04-24 19:32 | 37.03437 | -66.59251 | 32809 ft | 509 kts | 165° |
| 2026-04-24 19:33 | 36.96888 | -66.55846 | 32803 ft | 508 kts | 166° |
| 2026-04-24 19:33 | 36.90404 | -66.52483 | 32802 ft | 506 kts | 165° |
| 2026-04-24 19:34 | 36.83894 | -66.49112 | 32810 ft | 506 kts | 165° |
| 2026-04-24 19:34 | 36.77378 | -66.45744 | 32809 ft | 506 kts | 165° |
| 2026-04-24 19:35 | 36.70870 | -66.42386 | 32806 ft | 506 kts | 165° |
| 2026-04-24 19:35 | 36.64356 | -66.39032 | 32794 ft | 507 kts | 165° |
| 2026-04-24 19:36 | 36.57836 | -66.35680 | 32801 ft | 507 kts | 165° |
| 2026-04-24 19:36 | 36.51349 | -66.32351 | 32798 ft | 507 kts | 165° |
| 2026-04-24 19:37 | 36.44814 | -66.29004 | 32766 ft | 507 kts | 165° |
| 2026-04-24 19:37 | 36.38329 | -66.25688 | 32807 ft | 506 kts | 166° |
| 2026-04-24 19:38 | 36.32879 | -66.22906 | 32807 ft | 505 kts | 166° |
| 2026-04-24 19:38 | 36.26410 | -66.19611 | 32806 ft | 505 kts | 166° |
| 2026-04-24 19:39 | 36.19901 | -66.16300 | 32803 ft | 505 kts | 166° |
| 2026-04-24 19:39 | 36.13418 | -66.13008 | 32809 ft | 502 kts | 166° |
| 2026-04-24 19:40 | 36.06949 | -66.09730 | 32808 ft | 502 kts | 166° |
| 2026-04-24 19:40 | 36.00470 | -66.06453 | 32797 ft | 502 kts | 166° |
| 2026-04-24 19:41 | 35.94040 | -66.03205 | 32804 ft | 502 kts | 166° |
| 2026-04-24 19:41 | 35.87562 | -65.99940 | 32805 ft | 502 kts | 166° |
| 2026-04-24 19:42 | 35.81076 | -65.96676 | 32799 ft | 502 kts | 166° |
| 2026-04-24 19:42 | 35.74597 | -65.93421 | 32807 ft | 502 kts | 166° |
| 2026-04-24 19:43 | 35.68166 | -65.90195 | 32762 ft | 500 kts | 166° |
| 2026-04-24 19:43 | 35.61718 | -65.86970 | 32806 ft | 499 kts | 166° |
| 2026-04-24 19:44 | 35.55316 | -65.83770 | 32806 ft | 499 kts | 166° |
| 2026-04-24 19:44 | 35.48885 | -65.80562 | 32805 ft | 499 kts | 166° |
| 2026-04-24 19:45 | 35.42441 | -65.77353 | 32781 ft | 499 kts | 166° |
| 2026-04-24 19:45 | 35.36004 | -65.74154 | 32806 ft | 500 kts | 165° |
| 2026-04-24 19:46 | 35.29556 | -65.70952 | 32811 ft | 499 kts | 165° |
| 2026-04-24 19:46 | 35.23036 | -65.68284 | 32831 ft | 487 kts | 176° |
| 2026-04-24 19:47 | 35.16358 | -65.66919 | 32771 ft | 485 kts | 179° |
| 2026-04-24 19:47 | 35.09709 | -65.65584 | 32812 ft | 489 kts | 179° |
| 2026-04-24 19:48 | 35.02992 | -65.64197 | 32815 ft | 490 kts | 178° |
| 2026-04-24 19:48 | 34.92903 | -65.62108 | 32819 ft | 490 kts | 178° |
| 2026-04-24 19:49 | 34.79471 | -65.59335 | 32828 ft | 490 kts | 179° |
| 2026-04-24 19:50 | 34.66017 | -65.56566 | 32856 ft | 490 kts | 179° |
| 2026-04-24 19:51 | 34.55896 | -65.54489 | 32839 ft | 491 kts | 179° |
| 2026-04-24 19:52 | 34.45818 | -65.52426 | 32848 ft | 491 kts | 179° |
| 2026-04-24 19:52 | 34.39088 | -65.51051 | 32848 ft | 490 kts | 179° |
| 2026-04-24 19:53 | 34.32357 | -65.49681 | 32852 ft | 490 kts | 179° |
| 2026-04-24 19:54 | 34.22285 | -65.47636 | 32858 ft | 489 kts | 179° |
| 2026-04-24 19:54 | 34.15580 | -65.46275 | 32879 ft | 488 kts | 178° |
| 2026-04-24 19:55 | 34.10041 | -65.45154 | 32860 ft | 488 kts | 178° |
| 2026-04-24 19:55 | 34.02209 | -65.43571 | 32863 ft | 488 kts | 178° |
| 2026-04-24 19:56 | 33.95513 | -65.42220 | 32866 ft | 488 kts | 178° |
| 2026-04-24 19:56 | 33.88824 | -65.40873 | 32868 ft | 487 kts | 178° |
| 2026-04-24 19:57 | 33.82164 | -65.39530 | 32840 ft | 474 kts | 178° |
| 2026-04-24 19:57 | 33.79029 | -65.38886 | 32775 ft | 452 kts | 178° |
| 2026-04-24 19:57 | 33.75995 | -65.38268 | 32830 ft | 430 kts | 179° |
| 2026-04-24 19:57 | 33.73125 | -65.37685 | 32869 ft | 409 kts | 180° |
| 2026-04-24 19:58 | 33.70345 | -65.37134 | 32672 ft | 404 kts | 180° |
| 2026-04-24 19:58 | 33.67548 | -65.36602 | 32406 ft | 410 kts | 179° |
| 2026-04-24 19:58 | 33.64701 | -65.36057 | 32035 ft | 419 kts | 179° |
| 2026-04-24 19:58 | 33.61801 | -65.35493 | 31414 ft | 424 kts | 178° |
| 2026-04-24 19:59 | 33.58879 | -65.34915 | 30815 ft | 425 kts | 178° |
| 2026-04-24 19:59 | 33.55955 | -65.34336 | 30224 ft | 426 kts | 178° |
| 2026-04-24 19:59 | 33.53068 | -65.33766 | 29626 ft | 426 kts | 178° |
| 2026-04-24 19:59 | 33.50145 | -65.33188 | 29103 ft | 424 kts | 178° |
| 2026-04-24 20:00 | 33.47220 | -65.32615 | 28546 ft | 425 kts | 178° |
| 2026-04-24 20:00 | 33.44292 | -65.32042 | 27947 ft | 428 kts | 178° |
| 2026-04-24 20:00 | 33.41353 | -65.31466 | 27411 ft | 428 kts | 178° |
| 2026-04-24 20:00 | 33.38399 | -65.30887 | 26819 ft | 429 kts | 178° |
| 2026-04-24 20:01 | 33.35444 | -65.30308 | 26260 ft | 430 kts | 178° |
| 2026-04-24 20:01 | 33.32489 | -65.29729 | 25683 ft | 430 kts | 178° |
| 2026-04-24 20:01 | 33.29573 | -65.29158 | 25104 ft | 430 kts | 178° |
| 2026-04-24 20:01 | 33.26628 | -65.28582 | 24568 ft | 427 kts | 178° |
| 2026-04-24 20:02 | 33.24650 | -65.28193 | 24151 ft | 425 kts | 178° |
| 2026-04-24 20:02 | 33.20815 | -65.27443 | 23423 ft | 418 kts | 178° |
| 2026-04-24 20:02 | 33.17963 | -65.26885 | 22832 ft | 413 kts | 178° |
| 2026-04-24 20:02 | 33.15147 | -65.26335 | 22313 ft | 409 kts | 178° |
| 2026-04-24 20:03 | 33.12353 | -65.25793 | 21855 ft | 404 kts | 178° |
| 2026-04-24 20:03 | 33.09579 | -65.25254 | 21217 ft | 404 kts | 178° |
| 2026-04-24 20:03 | 33.06836 | -65.24613 | 20745 ft | 405 kts | 168° |
| 2026-04-24 20:03 | 33.04329 | -65.22988 | 20202 ft | 418 kts | 146° |
| 2026-04-24 20:04 | 33.02313 | -65.20466 | 19670 ft | 422 kts | 133° |
| 2026-04-24 20:04 | 33.00501 | -65.17787 | 19086 ft | 419 kts | 133° |
| 2026-04-24 20:04 | 32.98621 | -65.15157 | 18521 ft | 414 kts | 135° |
| 2026-04-24 20:04 | 32.96709 | -65.12626 | 17928 ft | 408 kts | 136° |
| 2026-04-24 20:05 | 32.94803 | -65.10160 | 17465 ft | 401 kts | 136° |
| 2026-04-24 20:05 | 32.92910 | -65.07733 | 16924 ft | 399 kts | 136° |
| 2026-04-24 20:05 | 32.91018 | -65.05323 | 16466 ft | 395 kts | 136° |
| 2026-04-24 20:05 | 32.89143 | -65.02940 | 15935 ft | 396 kts | 136° |
| 2026-04-24 20:06 | 32.87264 | -65.00556 | 15422 ft | 390 kts | 136° |
| 2026-04-24 20:06 | 32.85418 | -64.98213 | 14875 ft | 388 kts | 136° |
| 2026-04-24 20:06 | 32.83585 | -64.95891 | 14392 ft | 379 kts | 136° |
| 2026-04-24 20:06 | 32.81813 | -64.93646 | 13895 ft | 374 kts | 136° |
| 2026-04-24 20:07 | 32.80617 | -64.92131 | 13539 ft | 369 kts | 136° |
| 2026-04-24 20:07 | 32.78315 | -64.89218 | 12912 ft | 359 kts | 136° |
| 2026-04-24 20:07 | 32.76622 | -64.87078 | 12474 ft | 351 kts | 136° |
| 2026-04-24 20:07 | 32.74981 | -64.85002 | 11927 ft | 337 kts | 136° |
| 2026-04-24 20:08 | 32.73414 | -64.83022 | 11537 ft | 324 kts | 136° |
| 2026-04-24 20:08 | 32.71870 | -64.81075 | 11175 ft | 322 kts | 136° |
| 2026-04-24 20:08 | 32.70329 | -64.79135 | 10686 ft | 324 kts | 136° |
| 2026-04-24 20:08 | 32.68788 | -64.77194 | 10237 ft | 322 kts | 136° |
| 2026-04-24 20:09 | 32.67267 | -64.75278 | 9823 ft | 316 kts | 136° |
| 2026-04-24 20:09 | 32.65779 | -64.73402 | 9417 ft | 309 kts | 136° |
| 2026-04-24 20:09 | 32.64317 | -64.71562 | 9021 ft | 308 kts | 136° |
| 2026-04-24 20:09 | 32.62842 | -64.69707 | 8601 ft | 309 kts | 136° |
| 2026-04-24 20:10 | 32.61367 | -64.67854 | 8189 ft | 309 kts | 136° |
| 2026-04-24 20:10 | 32.59893 | -64.66002 | 7782 ft | 307 kts | 136° |
| 2026-04-24 20:10 | 32.58431 | -64.64165 | 7437 ft | 303 kts | 136° |
| 2026-04-24 20:10 | 32.56980 | -64.62345 | 6973 ft | 304 kts | 136° |
| 2026-04-24 20:11 | 32.55553 | -64.60554 | 6577 ft | 302 kts | 136° |
| 2026-04-24 20:11 | 32.54116 | -64.58752 | 6224 ft | 298 kts | 136° |
| 2026-04-24 20:11 | 32.52695 | -64.56971 | 5788 ft | 297 kts | 136° |
| 2026-04-24 20:11 | 32.51293 | -64.55212 | 5353 ft | 287 kts | 136° |
| 2026-04-24 20:12 | 32.49959 | -64.53535 | 4993 ft | 271 kts | 137° |
| 2026-04-24 20:12 | 32.48691 | -64.51944 | 4635 ft | 259 kts | 137° |
| 2026-04-24 20:12 | 32.47505 | -64.50400 | 4301 ft | 249 kts | 135° |
| 2026-04-24 20:12 | 32.46385 | -64.48878 | 3998 ft | 244 kts | 135° |
| 2026-04-24 20:13 | 32.45270 | -64.47375 | 3720 ft | 242 kts | 136° |
| 2026-04-24 20:13 | 32.44138 | -64.45861 | 3440 ft | 248 kts | 136° |
| 2026-04-24 20:13 | 32.42933 | -64.44399 | 3064 ft | 245 kts | 150° |
| 2026-04-24 20:13 | 32.41434 | -64.43744 | 2700 ft | 222 kts | 187° |
| 2026-04-24 20:14 | 32.40022 | -64.44063 | 2473 ft | 199 kts | 202° |
| 2026-04-24 20:14 | 32.38719 | -64.44493 | 2207 ft | 190 kts | 202° |
| 2026-04-24 20:14 | 32.37458 | -64.44885 | 1906 ft | 184 kts | 203° |
| 2026-04-24 20:14 | 32.36244 | -64.45231 | 1749 ft | 173 kts | 202° |
| 2026-04-24 20:15 | 32.35103 | -64.45544 | 1717 ft | 165 kts | 204° |
| 2026-04-24 20:15 | 32.34071 | -64.46184 | 1409 ft | 170 kts | 229° |
| 2026-04-24 20:15 | 32.33514 | -64.47319 | 1288 ft | 157 kts | 258° |
| 2026-04-24 20:15 | 32.33323 | -64.48576 | 1281 ft | 155 kts | 257° |
| 2026-04-24 20:16 | 32.33257 | -64.49776 | 1218 ft | 144 kts | 277° |
| 2026-04-24 20:16 | 32.33509 | -64.50871 | 1179 ft | 134 kts | 278° |
| 2026-04-24 20:16 | 32.33670 | -64.51956 | 1184 ft | 135 kts | 275° |
| 2026-04-24 20:16 | 32.33850 | -64.53066 | 1187 ft | 139 kts | 277° |
| 2026-04-24 20:17 | 32.34058 | -64.54190 | 1192 ft | 140 kts | 276° |
| 2026-04-24 20:17 | 32.34437 | -64.56433 | 1177 ft | 139 kts | 279° |
| 2026-04-24 20:17 | 32.34633 | -64.57560 | 1180 ft | 141 kts | 279° |
| 2026-04-24 20:18 | 32.34762 | -64.58308 | 1198 ft | 138 kts | 279° |
| 2026-04-24 20:18 | 32.35008 | -64.59727 | 1130 ft | 130 kts | 277° |
| 2026-04-24 20:18 | 32.35185 | -64.60772 | 985 ft | 130 kts | 278° |
| 2026-04-24 20:18 | 32.35365 | -64.61813 | 810 ft | 128 kts | 278° |
| 2026-04-24 20:19 | 32.35552 | -64.62852 | 612 ft | 133 kts | 279° |
| 2026-04-24 20:19 | 32.35740 | -64.63907 | 515 ft | 134 kts | 278° |
| 2026-04-24 20:19 | 32.35911 | -64.65005 | 334 ft | 139 kts | 278° |
| 2026-04-24 20:19 | 32.36114 | -64.66145 | 102 ft | 144 kts | 278° |
| 2026-04-24 20:20 | 32.36285 | -64.67255 | 2 ft | 123 kts | 282° |
| 2026-04-24 20:20 | 32.36423 | -64.68052 | 4 ft | 72 kts | 276° |
| 2026-04-24 20:20 | 32.36510 | -64.68541 | 4 ft | 52 kts | 283° |
| 2026-04-24 20:20 | 32.36578 | -64.68914 | 3 ft | 40 kts | 276° |
| 2026-04-24 20:21 | 32.36601 | -64.69204 | 2 ft | 28 kts | 251° |
| 2026-04-24 20:21 | 32.36536 | -64.69394 | 2 ft | 15 kts | 249° |
| 2026-04-24 20:21 | 32.36532 | -64.69406 | 2 ft | 0 kts | 249° |
| 2026-04-24 20:21 | 32.36528 | -64.69417 | 2 ft | 4 kts | 249° |
| 2026-04-24 20:22 | 32.36509 | -64.69476 | 2 ft | 11 kts | 249° |
| 2026-04-24 20:22 | 32.36470 | -64.69585 | 2 ft | 17 kts | 249° |
| 2026-04-24 20:22 | 32.36420 | -64.69738 | 2 ft | 22 kts | 249° |
| 2026-04-24 20:22 | 32.36364 | -64.69899 | 2 ft | 22 kts | 244° |
| 2026-04-24 20:23 | 32.36303 | -64.70062 | 2 ft | 20 kts | 249° |
| 2026-04-24 20:23 | 32.36269 | -64.70182 | 2 ft | 13 kts | 262° |
| 2026-04-24 20:23 | 32.36243 | -64.70275 | 2 ft | 11 kts | 250° |
| 2026-04-24 20:23 | 32.36235 | -64.70301 | 2 ft | 0 kts | 250° |